sensor_id;sensor_type;location;lat;lon;timestamp;temperature;humidity
42199;DHT22;27868;45.184;5.786;2023-04-01T00:02:20;12.60;91.40
42199;DHT22;27868;45.184;5.786;2023-04-01T00:05:05;12.60;91.70
42199;DHT22;27868;45.184;5.786;2023-04-01T00:07:49;12.50;91.70
42199;DHT22;27868;45.184;5.786;2023-04-01T00:10:34;12.50;91.70
42199;DHT22;27868;45.184;5.786;2023-04-01T00:13:19;12.50;92.00
42199;DHT22;27868;45.184;5.786;2023-04-01T00:16:04;12.50;92.00
42199;DHT22;27868;45.184;5.786;2023-04-01T00:18:49;12.50;92.30
42199;DHT22;27868;45.184;5.786;2023-04-01T00:21:34;12.50;92.30
42199;DHT22;27868;45.184;5.786;2023-04-01T00:24:19;12.50;92.70
42199;DHT22;27868;45.184;5.786;2023-04-01T00:27:03;12.40;92.40
42199;DHT22;27868;45.184;5.786;2023-04-01T00:29:48;12.40;92.50
42199;DHT22;27868;45.184;5.786;2023-04-01T00:32:33;12.50;92.50
42199;DHT22;27868;45.184;5.786;2023-04-01T00:35:17;12.40;92.60
42199;DHT22;27868;45.184;5.786;2023-04-01T00:38:02;12.40;92.50
42199;DHT22;27868;45.184;5.786;2023-04-01T00:40:47;12.40;92.60
42199;DHT22;27868;45.184;5.786;2023-04-01T00:43:32;12.30;92.50
42199;DHT22;27868;45.184;5.786;2023-04-01T00:46:16;12.40;92.70
42199;DHT22;27868;45.184;5.786;2023-04-01T00:49:01;12.30;92.60
42199;DHT22;27868;45.184;5.786;2023-04-01T00:51:47;12.30;92.60
42199;DHT22;27868;45.184;5.786;2023-04-01T00:54:32;12.30;92.70
42199;DHT22;27868;45.184;5.786;2023-04-01T00:57:19;12.20;92.80
42199;DHT22;27868;45.184;5.786;2023-04-01T01:00:05;12.10;92.80
42199;DHT22;27868;45.184;5.786;2023-04-01T01:02:51;12.10;93.20
42199;DHT22;27868;45.184;5.786;2023-04-01T01:11:35;12.00;93.10
42199;DHT22;27868;45.184;5.786;2023-04-01T01:17:08;12.00;92.80
42199;DHT22;27868;45.184;5.786;2023-04-01T01:20:14;12.00;92.80
42199;DHT22;27868;45.184;5.786;2023-04-01T01:38:44;11.90;92.80
42199;DHT22;27868;45.184;5.786;2023-04-01T01:41:09;11.90;93.20
42199;DHT22;27868;45.184;5.786;2023-04-01T01:43:55;11.80;93.00
42199;DHT22;27868;45.184;5.786;2023-04-01T01:46:40;11.90;92.70
42199;DHT22;27868;45.184;5.786;2023-04-01T01:49:27;11.80;93.00
42199;DHT22;27868;45.184;5.786;2023-04-01T01:52:14;11.80;92.90
42199;DHT22;27868;45.184;5.786;2023-04-01T01:55:01;11.80;92.60
42199;DHT22;27868;45.184;5.786;2023-04-01T01:57:45;11.80;92.50
42199;DHT22;27868;45.184;5.786;2023-04-01T02:00:30;11.90;92.20
42199;DHT22;27868;45.184;5.786;2023-04-01T02:03:14;11.80;92.10
42199;DHT22;27868;45.184;5.786;2023-04-01T02:06:00;11.90;92.20
42199;DHT22;27868;45.184;5.786;2023-04-01T02:11:47;11.60;93.30
42199;DHT22;27868;45.184;5.786;2023-04-01T02:14:52;11.70;92.80
42199;DHT22;27868;45.184;5.786;2023-04-01T02:17:38;11.70;92.90
42199;DHT22;27868;45.184;5.786;2023-04-01T02:20:24;11.70;93.10
42199;DHT22;27868;45.184;5.786;2023-04-01T02:23:09;11.70;93.00
42199;DHT22;27868;45.184;5.786;2023-04-01T02:25:54;11.70;93.00
42199;DHT22;27868;45.184;5.786;2023-04-01T02:28:39;11.70;93.10
42199;DHT22;27868;45.184;5.786;2023-04-01T02:31:24;11.70;93.20
42199;DHT22;27868;45.184;5.786;2023-04-01T02:34:09;11.70;93.20
42199;DHT22;27868;45.184;5.786;2023-04-01T02:36:54;11.70;93.20
42199;DHT22;27868;45.184;5.786;2023-04-01T02:39:39;11.70;93.30
42199;DHT22;27868;45.184;5.786;2023-04-01T02:42:24;11.70;93.40
42199;DHT22;27868;45.184;5.786;2023-04-01T02:45:08;11.70;93.30
42199;DHT22;27868;45.184;5.786;2023-04-01T02:47:53;11.70;93.30
42199;DHT22;27868;45.184;5.786;2023-04-01T02:50:38;11.60;93.50
42199;DHT22;27868;45.184;5.786;2023-04-01T02:53:22;11.70;93.60
42199;DHT22;27868;45.184;5.786;2023-04-01T02:56:07;11.70;93.60
42199;DHT22;27868;45.184;5.786;2023-04-01T02:58:52;11.70;93.50
42199;DHT22;27868;45.184;5.786;2023-04-01T03:01:37;11.70;93.50
42199;DHT22;27868;45.184;5.786;2023-04-01T03:04:21;11.70;93.60
42199;DHT22;27868;45.184;5.786;2023-04-01T03:07:05;11.70;93.50
42199;DHT22;27868;45.184;5.786;2023-04-01T03:09:50;11.70;93.60
42199;DHT22;27868;45.184;5.786;2023-04-01T03:12:35;11.60;93.60
42199;DHT22;27868;45.184;5.786;2023-04-01T03:15:19;11.70;93.70
42199;DHT22;27868;45.184;5.786;2023-04-01T03:18:04;11.70;93.70
42199;DHT22;27868;45.184;5.786;2023-04-01T03:20:49;11.60;93.70
42199;DHT22;27868;45.184;5.786;2023-04-01T03:23:33;11.60;93.80
42199;DHT22;27868;45.184;5.786;2023-04-01T03:26:18;11.60;93.70
42199;DHT22;27868;45.184;5.786;2023-04-01T03:29:02;11.60;93.80
42199;DHT22;27868;45.184;5.786;2023-04-01T03:31:47;11.60;93.80
42199;DHT22;27868;45.184;5.786;2023-04-01T03:34:31;11.60;93.80
42199;DHT22;27868;45.184;5.786;2023-04-01T03:37:16;11.60;93.80
42199;DHT22;27868;45.184;5.786;2023-04-01T03:40:00;11.60;93.90
42199;DHT22;27868;45.184;5.786;2023-04-01T03:42:45;11.60;93.80
42199;DHT22;27868;45.184;5.786;2023-04-01T03:45:29;11.50;94.20
42199;DHT22;27868;45.184;5.786;2023-04-01T03:48:14;11.50;94.20
42199;DHT22;27868;45.184;5.786;2023-04-01T03:50:59;11.60;94.00
42199;DHT22;27868;45.184;5.786;2023-04-01T03:53:43;11.60;93.90
42199;DHT22;27868;45.184;5.786;2023-04-01T03:56:28;11.60;93.90
42199;DHT22;27868;45.184;5.786;2023-04-01T03:59:12;11.50;94.10
42199;DHT22;27868;45.184;5.786;2023-04-01T04:01:57;11.50;94.00
42199;DHT22;27868;45.184;5.786;2023-04-01T04:04:41;11.50;94.00
42199;DHT22;27868;45.184;5.786;2023-04-01T04:07:26;11.50;94.10
42199;DHT22;27868;45.184;5.786;2023-04-01T04:10:11;11.50;94.40
42199;DHT22;27868;45.184;5.786;2023-04-01T04:12:55;11.50;94.00
42199;DHT22;27868;45.184;5.786;2023-04-01T04:15:40;11.50;94.00
42199;DHT22;27868;45.184;5.786;2023-04-01T04:18:25;11.50;94.00
42199;DHT22;27868;45.184;5.786;2023-04-01T04:21:13;11.50;94.00
42199;DHT22;27868;45.184;5.786;2023-04-01T04:23:58;11.50;94.00
42199;DHT22;27868;45.184;5.786;2023-04-01T04:26:43;11.50;94.10
42199;DHT22;27868;45.184;5.786;2023-04-01T04:29:27;11.50;94.40
42199;DHT22;27868;45.184;5.786;2023-04-01T04:32:12;11.50;94.10
42199;DHT22;27868;45.184;5.786;2023-04-01T04:34:57;11.50;94.30
42199;DHT22;27868;45.184;5.786;2023-04-01T04:37:41;11.50;94.20
42199;DHT22;27868;45.184;5.786;2023-04-01T04:40:26;11.50;94.20
42199;DHT22;27868;45.184;5.786;2023-04-01T04:43:11;11.50;94.10
42199;DHT22;27868;45.184;5.786;2023-04-01T04:45:56;11.60;94.20
42199;DHT22;27868;45.184;5.786;2023-04-01T04:48:40;11.50;94.60
42199;DHT22;27868;45.184;5.786;2023-04-01T04:51:25;11.50;94.90
42199;DHT22;27868;45.184;5.786;2023-04-01T04:54:10;11.50;94.50
42199;DHT22;27868;45.184;5.786;2023-04-01T04:56:55;11.50;94.30
42199;DHT22;27868;45.184;5.786;2023-04-01T04:59:39;11.50;94.50
42199;DHT22;27868;45.184;5.786;2023-04-01T05:02:24;11.40;94.30
42199;DHT22;27868;45.184;5.786;2023-04-01T05:05:09;11.50;94.20
42199;DHT22;27868;45.184;5.786;2023-04-01T05:07:54;11.60;94.10
42199;DHT22;27868;45.184;5.786;2023-04-01T05:10:38;11.50;94.20
42199;DHT22;27868;45.184;5.786;2023-04-01T05:13:23;11.50;94.00
42199;DHT22;27868;45.184;5.786;2023-04-01T05:16:11;11.50;94.10
42199;DHT22;27868;45.184;5.786;2023-04-01T05:18:56;11.50;94.00
42199;DHT22;27868;45.184;5.786;2023-04-01T05:21:41;11.50;94.00
42199;DHT22;27868;45.184;5.786;2023-04-01T05:24:25;11.50;93.90
42199;DHT22;27868;45.184;5.786;2023-04-01T05:27:10;11.50;93.90
42199;DHT22;27868;45.184;5.786;2023-04-01T05:29:54;11.50;94.00
42199;DHT22;27868;45.184;5.786;2023-04-01T05:32:39;11.50;94.20
42199;DHT22;27868;45.184;5.786;2023-04-01T05:35:23;11.50;94.70
42199;DHT22;27868;45.184;5.786;2023-04-01T05:38:08;11.40;94.10
42199;DHT22;27868;45.184;5.786;2023-04-01T05:40:58;11.40;94.00
42199;DHT22;27868;45.184;5.786;2023-04-01T05:43:42;11.50;94.50
42199;DHT22;27868;45.184;5.786;2023-04-01T05:46:27;11.40;94.70
42199;DHT22;27868;45.184;5.786;2023-04-01T05:49:11;11.40;94.50
42199;DHT22;27868;45.184;5.786;2023-04-01T05:51:56;11.40;94.60
42199;DHT22;27868;45.184;5.786;2023-04-01T05:54:41;11.50;94.50
42199;DHT22;27868;45.184;5.786;2023-04-01T05:57:26;11.40;94.60
42199;DHT22;27868;45.184;5.786;2023-04-01T06:00:11;11.40;94.60
42199;DHT22;27868;45.184;5.786;2023-04-01T06:02:57;11.40;94.60
42199;DHT22;27868;45.184;5.786;2023-04-01T06:05:43;11.40;94.70
42199;DHT22;27868;45.184;5.786;2023-04-01T06:08:30;11.40;94.60
42199;DHT22;27868;45.184;5.786;2023-04-01T06:25:35;11.50;94.70
42199;DHT22;27868;45.184;5.786;2023-04-01T06:31:33;11.50;94.60
42199;DHT22;27868;45.184;5.786;2023-04-01T06:38:01;11.50;94.90
42199;DHT22;27868;45.184;5.786;2023-04-01T06:55:01;11.60;95.00
42199;DHT22;27868;45.184;5.786;2023-04-01T06:57:47;11.70;95.30
42199;DHT22;27868;45.184;5.786;2023-04-01T07:00:37;11.70;95.10
42199;DHT22;27868;45.184;5.786;2023-04-01T07:03:29;11.80;95.00
42199;DHT22;27868;45.184;5.786;2023-04-01T07:06:16;11.80;95.00
42199;DHT22;27868;45.184;5.786;2023-04-01T07:09:09;11.90;94.90
42199;DHT22;27868;45.184;5.786;2023-04-01T07:11:56;11.90;94.80
42199;DHT22;27868;45.184;5.786;2023-04-01T07:14:43;11.80;95.00
42199;DHT22;27868;45.184;5.786;2023-04-01T07:17:28;11.80;95.20
42199;DHT22;27868;45.184;5.786;2023-04-01T07:23:03;11.80;95.60
42199;DHT22;27868;45.184;5.786;2023-04-01T07:25:52;11.80;95.20
42199;DHT22;27868;45.184;5.786;2023-04-01T07:28:37;11.90;95.20
42199;DHT22;27868;45.184;5.786;2023-04-01T07:34:18;12.00;95.20
42199;DHT22;27868;45.184;5.786;2023-04-01T07:37:06;12.00;95.30
42199;DHT22;27868;45.184;5.786;2023-04-01T07:42:56;12.10;95.20
42199;DHT22;27868;45.184;5.786;2023-04-01T07:45:45;11.90;95.40
42199;DHT22;27868;45.184;5.786;2023-04-01T07:54:09;12.20;95.30
42199;DHT22;27868;45.184;5.786;2023-04-01T07:57:02;12.20;95.20
42199;DHT22;27868;45.184;5.786;2023-04-01T08:17:02;12.60;94.50
42199;DHT22;27868;45.184;5.786;2023-04-01T08:19:56;12.70;94.40
42199;DHT22;27868;45.184;5.786;2023-04-01T08:22:43;12.80;94.30
42199;DHT22;27868;45.184;5.786;2023-04-01T08:25:29;12.80;94.00
42199;DHT22;27868;45.184;5.786;2023-04-01T08:28:26;12.80;93.80
42199;DHT22;27868;45.184;5.786;2023-04-01T08:31:24;12.80;93.80
42199;DHT22;27868;45.184;5.786;2023-04-01T08:34:15;12.80;93.80
42199;DHT22;27868;45.184;5.786;2023-04-01T08:37:04;12.90;93.80
42199;DHT22;27868;45.184;5.786;2023-04-01T08:39:50;13.00;93.90
42199;DHT22;27868;45.184;5.786;2023-04-01T08:42:44;13.00;93.80
42199;DHT22;27868;45.184;5.786;2023-04-01T08:45:48;13.00;93.90
42199;DHT22;27868;45.184;5.786;2023-04-01T08:48:45;13.00;93.90
42199;DHT22;27868;45.184;5.786;2023-04-01T08:51:54;13.10;93.90
42199;DHT22;27868;45.184;5.786;2023-04-01T08:55:51;13.00;93.80
42199;DHT22;27868;45.184;5.786;2023-04-01T08:58:11;13.10;93.90
42199;DHT22;27868;45.184;5.786;2023-04-01T09:01:09;13.10;93.20
42199;DHT22;27868;45.184;5.786;2023-04-01T09:21:32;13.30;93.60
42199;DHT22;27868;45.184;5.786;2023-04-01T09:24:26;13.40;93.60
42199;DHT22;27868;45.184;5.786;2023-04-01T09:27:32;13.40;91.80
42199;DHT22;27868;45.184;5.786;2023-04-01T09:36:26;13.40;91.20
42199;DHT22;27868;45.184;5.786;2023-04-01T09:39:36;13.50;91.40
42199;DHT22;27868;45.184;5.786;2023-04-01T09:48:21;13.50;89.60
42199;DHT22;27868;45.184;5.786;2023-04-01T09:54:16;13.50;88.90
42199;DHT22;27868;45.184;5.786;2023-04-01T10:26:22;14.00;85.70
42199;DHT22;27868;45.184;5.786;2023-04-01T10:35:14;14.20;86.80
42199;DHT22;27868;45.184;5.786;2023-04-01T10:53:10;14.30;86.90
42199;DHT22;27868;45.184;5.786;2023-04-01T11:11:01;14.40;87.60
42199;DHT22;27868;45.184;5.786;2023-04-01T11:17:35;14.60;88.10
42199;DHT22;27868;45.184;5.786;2023-04-01T11:26:09;14.80;84.60
42199;DHT22;27868;45.184;5.786;2023-04-01T11:43:26;14.80;86.00
42199;DHT22;27868;45.184;5.786;2023-04-01T11:46:15;14.80;86.60
42199;DHT22;27868;45.184;5.786;2023-04-01T11:49:17;14.90;86.70
42199;DHT22;27868;45.184;5.786;2023-04-01T11:55:23;14.80;87.00
42199;DHT22;27868;45.184;5.786;2023-04-01T11:58:22;14.80;88.20
42199;DHT22;27868;45.184;5.786;2023-04-01T12:01:27;15.00;90.20
42199;DHT22;27868;45.184;5.786;2023-04-01T12:07:31;15.20;88.80
42199;DHT22;27868;45.184;5.786;2023-04-01T12:10:21;15.30;88.50
42199;DHT22;27868;45.184;5.786;2023-04-01T12:15:57;15.80;87.10
42199;DHT22;27868;45.184;5.786;2023-04-01T12:25:29;16.00;82.50
42199;DHT22;27868;45.184;5.786;2023-04-01T12:28:00;16.10;83.50
42199;DHT22;27868;45.184;5.786;2023-04-01T12:39:31;16.50;82.20
42199;DHT22;27868;45.184;5.786;2023-04-01T12:42:22;16.60;82.60
42199;DHT22;27868;45.184;5.786;2023-04-01T12:48:09;16.80;80.30
42199;DHT22;27868;45.184;5.786;2023-04-01T13:05:37;17.20;79.60
42199;DHT22;27868;45.184;5.786;2023-04-01T13:14:24;17.60;78.20
42199;DHT22;27868;45.184;5.786;2023-04-01T13:17:16;17.60;76.40
42199;DHT22;27868;45.184;5.786;2023-04-01T13:26:17;17.70;74.30
42199;DHT22;27868;45.184;5.786;2023-04-01T13:29:25;17.80;75.00
42199;DHT22;27868;45.184;5.786;2023-04-01T13:35:03;17.90;74.50
42199;DHT22;27868;45.184;5.786;2023-04-01T13:37:52;18.00;73.60
42199;DHT22;27868;45.184;5.786;2023-04-01T13:43:24;18.10;73.40
42199;DHT22;27868;45.184;5.786;2023-04-01T13:55:25;18.10;72.20
42199;DHT22;27868;45.184;5.786;2023-04-01T14:04:18;17.90;71.10
42199;DHT22;27868;45.184;5.786;2023-04-01T14:21:29;17.20;70.20
42199;DHT22;27868;45.184;5.786;2023-04-01T14:24:32;17.10;70.70
42199;DHT22;27868;45.184;5.786;2023-04-01T14:30:15;16.80;71.10
42199;DHT22;27868;45.184;5.786;2023-04-01T14:33:26;16.70;71.20
42199;DHT22;27868;45.184;5.786;2023-04-01T14:51:36;16.30;73.80
42199;DHT22;27868;45.184;5.786;2023-04-01T14:54:43;16.20;74.10
42199;DHT22;27868;45.184;5.786;2023-04-01T14:57:30;16.10;74.00
42199;DHT22;27868;45.184;5.786;2023-04-01T15:00:18;16.00;74.70
42199;DHT22;27868;45.184;5.786;2023-04-01T15:06:14;15.80;74.50
42199;DHT22;27868;45.184;5.786;2023-04-01T15:14:43;15.50;76.90
42199;DHT22;27868;45.184;5.786;2023-04-01T15:17:45;15.40;78.10
42199;DHT22;27868;45.184;5.786;2023-04-01T15:29:01;15.00;81.30
42199;DHT22;27868;45.184;5.786;2023-04-01T15:41:07;14.60;83.70
42199;DHT22;27868;45.184;5.786;2023-04-01T15:43:54;14.60;84.70
42199;DHT22;27868;45.184;5.786;2023-04-01T15:46:46;14.50;85.20
42199;DHT22;27868;45.184;5.786;2023-04-01T15:49:37;14.40;86.70
42199;DHT22;27868;45.184;5.786;2023-04-01T15:55:27;14.30;87.50
42199;DHT22;27868;45.184;5.786;2023-04-01T16:04:07;13.70;89.20
42199;DHT22;27868;45.184;5.786;2023-04-01T16:13:04;13.60;90.10
42199;DHT22;27868;45.184;5.786;2023-04-01T16:27:16;13.70;89.10
42199;DHT22;27868;45.184;5.786;2023-04-01T16:30:16;13.70;89.20
42199;DHT22;27868;45.184;5.786;2023-04-01T16:35:59;13.60;88.80
42199;DHT22;27868;45.184;5.786;2023-04-01T16:44:56;13.60;90.40
42199;DHT22;27868;45.184;5.786;2023-04-01T16:50:49;13.70;90.20
42199;DHT22;27868;45.184;5.786;2023-04-01T16:53:43;13.80;90.20
42199;DHT22;27868;45.184;5.786;2023-04-01T16:56:36;13.80;90.00
42199;DHT22;27868;45.184;5.786;2023-04-01T16:59:24;13.80;90.10
42199;DHT22;27868;45.184;5.786;2023-04-01T17:02:12;13.80;90.00
42199;DHT22;27868;45.184;5.786;2023-04-01T17:16:56;13.70;90.90
42199;DHT22;27868;45.184;5.786;2023-04-01T17:22:50;13.60;91.00
42199;DHT22;27868;45.184;5.786;2023-04-01T17:25:44;13.50;91.10
42199;DHT22;27868;45.184;5.786;2023-04-01T17:28:35;13.50;91.10
42199;DHT22;27868;45.184;5.786;2023-04-01T17:34:31;13.50;90.90
42199;DHT22;27868;45.184;5.786;2023-04-01T17:48:49;13.40;91.10
42199;DHT22;27868;45.184;5.786;2023-04-01T17:54:41;13.40;91.40
42199;DHT22;27868;45.184;5.786;2023-04-01T17:57:36;13.30;91.40
42199;DHT22;27868;45.184;5.786;2023-04-01T18:00:30;13.20;91.10
42199;DHT22;27868;45.184;5.786;2023-04-01T18:09:08;13.10;91.50
42199;DHT22;27868;45.184;5.786;2023-04-01T18:15:21;13.10;91.30
42199;DHT22;27868;45.184;5.786;2023-04-01T18:18:47;13.00;91.40
42199;DHT22;27868;45.184;5.786;2023-04-01T18:27:04;12.90;91.70
42199;DHT22;27868;45.184;5.786;2023-04-01T18:30:05;12.90;91.70
42199;DHT22;27868;45.184;5.786;2023-04-01T18:41:35;12.80;92.20
42199;DHT22;27868;45.184;5.786;2023-04-01T18:47:25;12.70;92.40
42199;DHT22;27868;45.184;5.786;2023-04-01T18:50:14;12.70;92.20
42199;DHT22;27868;45.184;5.786;2023-04-01T18:56:01;12.70;92.00
42199;DHT22;27868;45.184;5.786;2023-04-01T18:58:48;12.70;92.00
42199;DHT22;27868;45.184;5.786;2023-04-01T19:01:41;12.70;91.90
42199;DHT22;27868;45.184;5.786;2023-04-01T19:07:41;12.60;91.70
42199;DHT22;27868;45.184;5.786;2023-04-01T19:21:56;12.30;91.90
42199;DHT22;27868;45.184;5.786;2023-04-01T19:24:53;12.30;92.00
42199;DHT22;27868;45.184;5.786;2023-04-01T19:42:15;12.10;92.50
42199;DHT22;27868;45.184;5.786;2023-04-01T19:50:57;12.00;92.90
42199;DHT22;27868;45.184;5.786;2023-04-01T20:08:07;11.90;93.40
42199;DHT22;27868;45.184;5.786;2023-04-01T20:16:49;11.90;93.70
42199;DHT22;27868;45.184;5.786;2023-04-01T20:19:39;11.90;93.70
42199;DHT22;27868;45.184;5.786;2023-04-01T20:25:46;11.80;93.60
42199;DHT22;27868;45.184;5.786;2023-04-01T20:31:40;11.80;93.80
42199;DHT22;27868;45.184;5.786;2023-04-01T20:37:14;11.70;93.80
42199;DHT22;27868;45.184;5.786;2023-04-01T20:48:42;11.70;94.20
42199;DHT22;27868;45.184;5.786;2023-04-01T20:51:29;11.70;94.20
42199;DHT22;27868;45.184;5.786;2023-04-01T20:57:57;11.70;94.40
42199;DHT22;27868;45.184;5.786;2023-04-01T21:03:25;11.60;94.60
42199;DHT22;27868;45.184;5.786;2023-04-01T21:06:18;11.60;94.50
42199;DHT22;27868;45.184;5.786;2023-04-01T21:09:53;11.60;94.60
42199;DHT22;27868;45.184;5.786;2023-04-01T21:21:14;11.50;94.70
42199;DHT22;27868;45.184;5.786;2023-04-01T21:33:18;11.40;94.90
42199;DHT22;27868;45.184;5.786;2023-04-01T21:42:06;11.30;95.10
42199;DHT22;27868;45.184;5.786;2023-04-01T21:45:07;11.30;95.10
42199;DHT22;27868;45.184;5.786;2023-04-01T21:48:03;11.30;95.30
42199;DHT22;27868;45.184;5.786;2023-04-01T22:00:13;11.20;95.20
42199;DHT22;27868;45.184;5.786;2023-04-01T22:06:05;11.20;95.30
42199;DHT22;27868;45.184;5.786;2023-04-01T22:09:02;11.30;95.30
42199;DHT22;27868;45.184;5.786;2023-04-01T22:14:56;11.20;95.20
42199;DHT22;27868;45.184;5.786;2023-04-01T22:17:45;11.20;95.60
42199;DHT22;27868;45.184;5.786;2023-04-01T22:20:35;11.10;95.20
42199;DHT22;27868;45.184;5.786;2023-04-01T22:23:26;11.20;95.20
42199;DHT22;27868;45.184;5.786;2023-04-01T22:29:24;11.20;95.30
42199;DHT22;27868;45.184;5.786;2023-04-01T22:32:23;11.20;95.30
42199;DHT22;27868;45.184;5.786;2023-04-01T22:38:25;11.20;95.40
42199;DHT22;27868;45.184;5.786;2023-04-01T22:41:19;11.20;95.20
42199;DHT22;27868;45.184;5.786;2023-04-01T22:47:26;11.20;95.30
42199;DHT22;27868;45.184;5.786;2023-04-01T22:50:18;11.20;95.30
42199;DHT22;27868;45.184;5.786;2023-04-01T22:53:13;11.20;95.30
42199;DHT22;27868;45.184;5.786;2023-04-01T22:56:01;11.20;95.40
42199;DHT22;27868;45.184;5.786;2023-04-01T22:58:56;11.20;95.60
42199;DHT22;27868;45.184;5.786;2023-04-01T23:01:45;11.20;95.50
42199;DHT22;27868;45.184;5.786;2023-04-01T23:04:32;11.10;95.40
42199;DHT22;27868;45.184;5.786;2023-04-01T23:10:12;11.10;95.50
42199;DHT22;27868;45.184;5.786;2023-04-01T23:12:59;11.20;95.50
42199;DHT22;27868;45.184;5.786;2023-04-01T23:15:45;11.20;95.50
42199;DHT22;27868;45.184;5.786;2023-04-01T23:21:41;11.20;95.60
42199;DHT22;27868;45.184;5.786;2023-04-01T23:24:38;11.20;95.60
42199;DHT22;27868;45.184;5.786;2023-04-01T23:36:12;11.10;95.70
42199;DHT22;27868;45.184;5.786;2023-04-01T23:38:59;11.10;95.70
42199;DHT22;27868;45.184;5.786;2023-04-01T23:41:44;11.10;95.70
42199;DHT22;27868;45.184;5.786;2023-04-01T23:44:29;11.10;95.70
42199;DHT22;27868;45.184;5.786;2023-04-01T23:47:18;11.10;96.20
42199;DHT22;27868;45.184;5.786;2023-04-01T23:50:04;11.00;95.80
42199;DHT22;27868;45.184;5.786;2023-04-01T23:55:40;11.00;95.70
42199;DHT22;27868;45.184;5.786;2023-04-01T23:58:40;11.00;95.70
